Aviation Digital Data Service (ADDS)

Output produced by METARs form (1356 UTC 10 July 2020)
found at http://www.aviationweather.gov/metar/data/
 
KAVL 101354Z 00000KT 5SM HZ CLR 23/21 A3005 RMK AO2 SLP149 T02330206
KAVL 101344Z 00000KT 5SM BR FEW005 23/21 A3006 RMK AO2 T02280211
KAVL 101337Z 00000KT 2 1/2SM BR SCT005 22/20 A3006 RMK AO2 T02220200
KAVL 101327Z 00000KT 2 1/2SM BR BKN005 22/20 A3006 RMK AO2 CIG 003V008 T02220200
KAVL 101307Z 00000KT 1SM BR BKN004 21/19 A3006 RMK AO2 CIG 002V006 T02110194 RVRNO
KAVL 101301Z 00000KT 6SM BR BKN002 BKN006 21/19 A3006 RMK AO2 CIG 002V005 T02110194
KAVL 101346Z 1014/1112 00000KT 3SM BR SCT005 
     FM101430 31004KT P6SM SCT006 
     FM101600 32005KT P6SM VCSH SCT040 
     TEMPO 1021/1024 4SM TSRA BR BKN060CB 
     FM110300 32005KT P6SM SCT100